Time;durP1;ratioP1;P1;durP2;ratioP2;P2;SDS_P1;SDS_P2;PMS_P1;PMS_P2;Temp;Humidity;BMP_temperature;BMP_pressure;BME280_temperature;BME280_humidity;BME280_pressure;Samples;Min_cycle;Max_cycle;Signal;HPM_P1;HPM_P2
2022/07/24 00:00:48;;;;;;;4.53;2.63;;;;;;;22.33;63.92;100537.44;5083224;28;20482;-51
2022/07/24 00:03:15;;;;;;;1.87;1.77;;;;;;;22.66;63.67;100544.94;5090063;28;20527;-50
2022/07/24 00:05:46;;;;;;;1.80;1.70;;;;;;;22.77;62.85;100542.28;5092306;28;20934;-52
2022/07/24 00:08:12;;;;;;;3.03;2.37;;;;;;;22.57;63.73;100551.03;5092552;28;20476;-50
2022/07/24 00:10:39;;;;;;;2.40;1.83;;;;;;;22.72;63.64;100546.31;5084721;28;20448;-51
2022/07/24 00:13:05;;;;;;;3.30;2.67;;;;;;;22.58;63.78;100551.91;5090566;28;20449;-50
2022/07/24 00:15:32;;;;;;;3.07;2.87;;;;;;;22.38;64.67;100551.53;5092322;28;20530;-51
2022/07/24 00:17:58;;;;;;;6.03;2.00;;;;;;;22.36;64.94;100548.06;5091516;28;20469;-51
2022/07/24 00:20:25;;;;;;;4.20;2.50;;;;;;;22.42;64.40;100546.75;5087362;28;20481;-50
2022/07/24 00:22:52;;;;;;;3.67;2.60;;;;;;;22.17;65.12;100548.53;5085545;28;20481;-50
2022/07/24 00:25:18;;;;;;;4.47;2.60;;;;;;;22.32;65.30;100542.97;5075882;28;20454;-51
2022/07/24 00:27:44;;;;;;;3.43;2.40;;;;;;;22.34;64.98;100541.00;5095039;28;20444;-50
2022/07/24 00:30:11;;;;;;;1.73;1.63;;;;;;;22.40;65.29;100543.28;5093673;28;20462;-51
2022/07/24 00:32:38;;;;;;;2.80;2.60;;;;;;;22.31;65.65;100535.84;5081813;28;20484;-51
2022/07/24 00:35:05;;;;;;;3.47;2.60;;;;;;;22.47;65.62;100544.56;5096603;28;20490;-51
2022/07/24 00:37:31;;;;;;;6.80;2.07;;;;;;;22.24;66.63;100539.97;5084568;28;20453;-50
2022/07/24 00:39:58;;;;;;;6.00;2.60;;;;;;;22.15;66.46;100534.25;5095995;28;20499;-51
2022/07/24 00:42:24;;;;;;;2.77;2.00;;;;;;;21.82;66.83;100529.41;5095746;28;20452;-51
2022/07/24 00:44:50;;;;;;;2.50;2.40;;;;;;;21.96;66.62;100530.25;5095845;28;20543;-51
2022/07/24 00:47:17;;;;;;;3.53;3.23;;;;;;;21.89;67.21;100532.53;5088206;28;20530;-50
2022/07/24 00:49:44;;;;;;;2.17;2.07;;;;;;;21.63;68.45;100538.94;5095893;28;21007;-50
2022/07/24 00:52:10;;;;;;;5.73;1.80;;;;;;;21.70;67.81;100542.94;5095536;28;20445;-51
2022/07/24 00:54:38;;;;;;;2.33;2.20;;;;;;;21.36;69.40;100531.75;5081829;28;20794;-50
2022/07/24 00:57:04;;;;;;;4.67;2.57;;;;;;;21.23;69.44;100537.13;5095570;28;20448;-50
2022/07/24 00:59:31;;;;;;;3.40;2.23;;;;;;;21.48;69.00;100535.47;5095278;28;20541;-51
2022/07/24 01:01:58;;;;;;;2.60;2.40;;;;;;;21.29;68.95;100535.88;5095784;28;20455;-50
2022/07/24 01:04:25;;;;;;;2.53;1.60;;;;;;;21.01;70.09;100539.59;5095803;28;20449;-51
2022/07/24 01:06:52;;;;;;;2.50;2.20;;;;;;;21.09;70.42;100541.75;5074904;28;20867;-50
2022/07/24 01:09:19;;;;;;;1.73;1.63;;;;;;;20.80;70.85;100539.19;5075004;28;20465;-51
2022/07/24 01:11:45;;;;;;;3.50;3.20;;;;;;;20.79;70.79;100539.28;5075027;28;20460;-51
2022/07/24 01:14:13;;;;;;;2.70;2.50;;;;;;;20.74;71.02;100536.03;5074557;28;20480;-50
2022/07/24 01:16:40;;;;;;;2.20;2.00;;;;;;;20.73;70.92;100534.31;5074868;28;20450;-50
2022/07/24 01:19:06;;;;;;;2.37;2.17;;;;;;;20.50;71.52;100536.69;5074964;28;20476;-51
2022/07/24 01:21:34;;;;;;;2.73;2.53;;;;;;;20.66;71.08;100533.81;5089801;28;20453;-51
2022/07/24 01:24:00;;;;;;;4.10;2.20;;;;;;;20.56;71.67;100532.69;5081514;28;20445;-51
2022/07/24 01:26:27;;;;;;;2.40;2.10;;;;;;;20.21;72.80;100534.97;5094337;28;20456;-51
2022/07/24 01:28:54;;;;;;;2.50;2.30;;;;;;;20.24;72.97;100538.34;5084415;28;20476;-51
2022/07/24 01:31:20;;;;;;;2.30;2.13;;;;;;;20.03;74.49;100537.03;5094995;28;20463;-51
2022/07/24 01:33:47;;;;;;;3.00;2.80;;;;;;;20.08;74.05;100540.31;5094867;28;20465;-51
2022/07/24 01:36:13;;;;;;;3.10;2.27;;;;;;;20.07;74.53;100544.84;5095293;28;20456;-51
2022/07/24 01:38:40;;;;;;;2.60;2.50;;;;;;;20.17;74.21;100544.25;5092275;28;20469;-50
2022/07/24 01:41:06;;;;;;;4.10;3.20;;;;;;;19.83;75.15;100549.94;5082835;28;20485;-51
2022/07/24 01:43:33;;;;;;;2.80;2.60;;;;;;;20.07;74.90;100543.97;5081685;28;20450;-51
2022/07/24 01:45:59;;;;;;;4.57;2.60;;;;;;;20.05;74.55;100546.78;5091998;28;20536;-50
2022/07/24 01:48:26;;;;;;;3.60;3.00;;;;;;;19.90;75.96;100538.78;5087231;28;20472;-51
2022/07/24 01:50:52;;;;;;;2.83;2.63;;;;;;;19.77;75.82;100544.94;5083783;28;20817;-50
2022/07/24 01:53:19;;;;;;;2.53;2.33;;;;;;;19.92;75.65;100543.13;5095530;28;20467;-50
2022/07/24 01:55:45;;;;;;;8.60;2.40;;;;;;;19.81;76.09;100541.09;5094848;28;20451;-50
2022/07/24 01:58:12;;;;;;;3.37;3.17;;;;;;;19.66;76.16;100542.03;5091295;28;20472;-50
2022/07/24 02:00:38;;;;;;;8.00;2.70;;;;;;;19.62;76.35;100543.22;5083805;28;20485;-50
2022/07/24 02:03:05;;;;;;;2.57;2.37;;;;;;;19.56;76.19;100535.47;5094206;28;20888;-52
2022/07/24 02:05:32;;;;;;;2.50;2.30;;;;;;;19.42;77.51;100538.13;5094537;28;20455;-51
2022/07/24 02:07:59;;;;;;;2.50;2.40;;;;;;;19.48;77.49;100537.78;5090345;28;20849;-51
2022/07/24 02:10:28;;;;;;;2.53;2.33;;;;;;;19.52;76.86;100540.16;5083529;28;20953;-51
2022/07/24 02:12:55;;;;;;;1.70;1.60;;;;;;;19.69;76.36;100536.44;5081819;28;20448;-50
2022/07/24 02:15:24;;;;;;;8.83;2.30;;;;;;;19.49;76.40;100536.81;5093602;28;20456;-50
2022/07/24 02:17:54;;;;;;;3.10;2.47;;;;;;;19.21;77.60;100527.69;5086264;28;21018;-51
2022/07/24 02:20:21;;;;;;;4.90;2.17;;;;;;;19.16;77.75;100532.47;5084369;28;20927;-51
2022/07/24 02:22:48;;;;;;;6.27;3.10;;;;;;;19.37;76.67;100534.84;5088749;28;20504;-51
2022/07/24 02:25:15;;;;;;;2.93;2.57;;;;;;;19.14;77.66;100539.81;5086306;28;20451;-51
2022/07/24 02:27:42;;;;;;;2.70;2.60;;;;;;;19.09;78.01;100531.13;5090104;28;20480;-51
2022/07/24 02:30:12;;;;;;;2.27;2.13;;;;;;;19.09;78.00;100536.53;5073780;28;20549;-50
2022/07/24 02:32:39;;;;;;;2.87;2.67;;;;;;;18.89;78.70;100534.13;5074610;28;20507;-51
2022/07/24 02:35:06;;;;;;;4.70;3.33;;;;;;;18.76;79.47;100539.38;5073670;28;20454;-51
2022/07/24 02:37:36;;;;;;;5.63;2.03;;;;;;;18.70;79.38;100539.75;5073546;28;20450;-50
2022/07/24 02:40:05;;;;;;;2.63;2.53;;;;;;;18.76;79.88;100538.50;5088404;28;20877;-50
2022/07/24 02:42:31;;;;;;;2.67;2.57;;;;;;;18.72;79.73;100536.97;5084719;28;20472;-50
2022/07/24 02:44:58;;;;;;;4.00;2.70;;;;;;;18.72;79.58;100540.50;5093325;28;20457;-50
2022/07/24 02:47:24;;;;;;;3.27;3.07;;;;;;;18.85;79.01;100540.66;5086657;28;20449;-50
2022/07/24 02:49:51;;;;;;;3.10;2.90;;;;;;;18.82;79.28;100546.25;5091757;28;20465;-50
2022/07/24 02:52:17;;;;;;;2.20;2.10;;;;;;;18.68;79.62;100547.03;5082576;28;20451;-53
2022/07/24 02:54:44;;;;;;;6.40;2.87;;;;;;;18.67;79.94;100544.44;5093431;28;20535;-53
2022/07/24 02:57:10;;;;;;;2.13;2.03;;;;;;;18.71;80.12;100544.16;5091037;28;20544;-52
2022/07/24 02:59:36;;;;;;;4.77;2.40;;;;;;;18.46;80.72;100544.66;5090942;28;20973;-54
2022/07/24 03:02:03;;;;;;;9.07;2.83;;;;;;;18.58;80.43;100548.50;5081623;28;20474;-54
2022/07/24 03:04:29;;;;;;;3.27;3.07;;;;;;;18.58;80.37;100554.75;5086153;28;20458;-53
2022/07/24 03:06:56;;;;;;;9.10;3.60;;;;;;;18.53;81.50;100542.50;5075103;28;20458;-53
2022/07/24 03:09:22;;;;;;;2.83;2.40;;;;;;;18.62;81.46;100548.22;5087916;28;20465;-53
2022/07/24 03:11:49;;;;;;;2.47;2.37;;;;;;;18.69;81.62;100548.78;5093122;28;20938;-54
2022/07/24 03:14:15;;;;;;;3.23;3.03;;;;;;;18.98;80.19;100547.06;5093114;28;20445;-53
2022/07/24 03:16:42;;;;;;;3.27;3.00;;;;;;;18.71;81.24;100551.38;5091549;28;20541;-53
2022/07/24 03:19:08;;;;;;;5.30;2.60;;;;;;;18.55;81.89;100541.47;5079451;28;20505;-52
2022/07/24 03:21:35;;;;;;;2.73;2.27;;;;;;;18.68;81.58;100547.03;5092798;28;20491;-53
2022/07/24 03:24:17;;;;;;;3.33;3.13;;;;;;;18.33;82.39;100552.56;5079656;28;20498;-53
2022/07/24 03:26:43;;;;;;;28.53;3.30;;;;;;;18.37;82.92;100547.91;5092128;28;20540;-54
2022/07/24 03:29:10;;;;;;;2.63;2.43;;;;;;;18.43;83.36;100558.31;5079221;28;20502;-54
2022/07/24 03:31:36;;;;;;;2.93;2.73;;;;;;;18.17;83.86;100549.00;5092642;28;20483;-53
2022/07/24 03:34:03;;;;;;;2.67;2.47;;;;;;;18.29;82.78;100547.47;5092998;28;20448;-54
2022/07/24 03:36:29;;;;;;;2.90;2.70;;;;;;;18.19;83.37;100557.00;5092087;28;20477;-54
2022/07/24 03:38:56;;;;;;;1.97;1.67;;;;;;;18.23;83.07;100554.06;5079317;28;21004;-53
2022/07/24 03:41:22;;;;;;;3.17;2.97;;;;;;;18.06;83.49;100548.75;5093005;28;20481;-52
2022/07/24 03:43:49;;;;;;;5.40;2.43;;;;;;;17.95;84.11;100564.59;5092824;28;20460;-52
2022/07/24 03:46:16;;;;;;;2.40;2.30;;;;;;;17.95;84.13;100553.84;5087045;28;20458;-53
2022/07/24 03:48:43;;;;;;;2.60;2.40;;;;;;;18.07;83.60;100558.53;5084786;28;20554;-52
2022/07/24 03:51:09;;;;;;;2.43;2.23;;;;;;;17.98;83.68;100554.56;5084616;28;20445;-52
2022/07/24 03:53:37;;;;;;;2.60;2.40;;;;;;;17.97;84.57;100554.66;5086136;28;20863;-52
2022/07/24 03:56:06;;;;;;;3.37;3.07;;;;;;;17.98;84.44;100559.94;5084863;28;20934;-53
2022/07/24 03:58:33;;;;;;;2.70;2.43;;;;;;;17.72;84.96;100555.97;5091374;28;20480;-51
2022/07/24 04:01:05;;;;;;;7.60;2.73;;;;;;;17.65;85.68;100561.72;5077699;28;20484;-51
2022/07/24 04:03:31;;;;;;;5.70;3.40;;;;;;;17.59;86.01;100554.00;5084871;28;20487;-50
2022/07/24 04:06:01;;;;;;;2.17;2.07;;;;;;;17.71;85.76;100553.38;5086184;28;20477;-52
2022/07/24 04:08:27;;;;;;;10.80;2.37;;;;;;;17.72;85.34;100557.78;5092158;28;20465;-51
2022/07/24 04:10:56;;;;;;;7.57;2.37;;;;;;;17.80;85.48;100558.22;5092411;28;20445;-51
2022/07/24 04:13:28;;;;;;;4.00;2.40;;;;;;;17.80;86.30;100560.91;5092191;28;20811;-51
2022/07/24 04:15:55;;;;;;;2.30;2.10;;;;;;;17.81;86.28;100559.09;5092215;28;20826;-50
2022/07/24 04:18:22;;;;;;;8.13;3.20;;;;;;;17.65;86.69;100561.72;5082450;28;20480;-50
2022/07/24 04:20:49;;;;;;;4.10;2.07;;;;;;;17.88;86.04;100561.38;5085516;28;20850;-51
2022/07/24 04:23:16;;;;;;;8.50;3.40;;;;;;;17.77;86.03;100555.72;5082866;28;20456;-50
2022/07/24 04:25:44;;;;;;;2.63;2.43;;;;;;;17.95;85.41;100562.78;5075873;28;20536;-51
2022/07/24 04:28:11;;;;;;;2.67;2.47;;;;;;;17.87;85.59;100569.53;5092088;28;20913;-50
2022/07/24 04:30:38;;;;;;;3.33;3.13;;;;;;;17.90;85.18;100563.97;5082099;28;20494;-51
2022/07/24 04:33:04;;;;;;;3.47;3.23;;;;;;;18.07;84.86;100558.53;5085947;28;20547;-52
2022/07/24 04:35:31;;;;;;;2.13;2.03;;;;;;;18.27;84.42;100560.13;5091987;28;20452;-51
2022/07/24 04:37:57;;;;;;;8.90;3.13;;;;;;;18.25;84.89;100562.06;5090891;28;20538;-51
2022/07/24 04:40:24;;;;;;;9.10;2.77;;;;;;;18.21;85.21;100558.63;5078648;28;20492;-51
2022/07/24 04:42:50;;;;;;;4.00;2.50;;;;;;;18.09;86.68;100559.31;5092329;28;20440;-50
2022/07/24 04:45:17;;;;;;;2.37;2.07;;;;;;;18.38;85.79;100557.72;5077375;28;20453;-51
2022/07/24 04:47:43;;;;;;;3.60;3.40;;;;;;;18.64;84.66;100567.91;5085117;28;20452;-50
2022/07/24 04:50:10;;;;;;;3.40;2.50;;;;;;;19.19;82.38;100566.50;5092006;28;20535;-54
2022/07/24 04:52:37;;;;;;;10.40;3.00;;;;;;;19.75;79.81;100554.97;5091148;28;20457;-50
2022/07/24 04:55:04;;;;;;;2.27;2.17;;;;;;;20.10;78.46;100559.97;5078694;28;20453;-49
2022/07/24 04:57:30;;;;;;;3.37;3.00;;;;;;;20.56;76.56;100555.19;5092229;28;20452;-49
2022/07/24 04:59:57;;;;;;;14.70;3.97;;;;;;;20.95;74.87;100557.06;5091662;28;20464;-49
2022/07/24 05:02:23;;;;;;;8.73;3.70;;;;;;;21.36;73.28;100557.94;5080321;28;20485;-49
2022/07/24 05:04:49;;;;;;;7.80;3.27;;;;;;;21.43;72.12;100567.38;5084575;28;20449;-50
2022/07/24 05:07:16;;;;;;;9.93;3.00;;;;;;;21.43;72.64;100568.25;5092420;28;20455;-49
2022/07/24 05:09:43;;;;;;;3.93;3.53;;;;;;;21.50;72.19;100563.25;5092222;28;20845;-49
2022/07/24 05:12:09;;;;;;;4.07;3.57;;;;;;;21.70;71.35;100553.78;5094250;28;20539;-50
2022/07/24 05:14:36;;;;;;;5.53;3.33;;;;;;;21.69;71.48;100566.44;5095253;28;20930;-49
2022/07/24 05:17:02;;;;;;;3.93;3.63;;;;;;;22.16;70.14;100573.91;5083547;28;20460;-50
2022/07/24 05:19:28;;;;;;;4.10;3.33;;;;;;;22.33;68.64;100567.25;5087096;28;20466;-50
2022/07/24 05:21:55;;;;;;;4.40;2.90;;;;;;;22.58;67.47;100573.56;5094612;28;20998;-51
2022/07/24 05:24:21;;;;;;;2.80;2.63;;;;;;;22.46;68.02;100569.91;5081790;28;20445;-49
2022/07/24 05:26:48;;;;;;;3.80;3.43;;;;;;;22.60;67.16;100571.63;5095631;28;20445;-50
2022/07/24 05:29:16;;;;;;;3.17;2.63;;;;;;;22.41;67.46;100567.56;5088719;28;20828;-50
2022/07/24 05:31:43;;;;;;;3.33;3.13;;;;;;;22.38;67.63;100565.09;5087229;28;20827;-51
2022/07/24 05:34:10;;;;;;;3.83;3.63;;;;;;;22.47;67.75;100574.34;5085556;28;20514;-50
2022/07/24 05:36:37;;;;;;;5.23;4.13;;;;;;;22.66;67.37;100566.63;5095286;28;20456;-49
2022/07/24 05:39:04;;;;;;;12.20;3.37;;;;;;;23.09;66.61;100568.84;5091124;28;20556;-49
2022/07/24 05:41:31;;;;;;;5.90;3.27;;;;;;;23.17;66.36;100571.84;5087185;28;20546;-51
2022/07/24 05:43:58;;;;;;;5.37;3.70;;;;;;;23.31;65.61;100576.22;5084645;28;20449;-50
2022/07/24 05:46:24;;;;;;;3.40;3.20;;;;;;;23.62;64.83;100577.44;5088706;28;20452;-50
2022/07/24 05:48:50;;;;;;;4.30;4.10;;;;;;;24.06;62.98;100584.75;5091708;28;20495;-50
2022/07/24 05:51:17;;;;;;;4.10;3.90;;;;;;;24.12;62.82;100588.81;5095254;28;20495;-50
2022/07/24 05:53:44;;;;;;;4.13;3.73;;;;;;;24.34;61.61;100588.84;5093120;28;20446;-50
2022/07/24 05:56:10;;;;;;;4.40;4.00;;;;;;;23.91;62.81;100585.97;5088754;28;20546;-51
2022/07/24 05:58:36;;;;;;;3.93;3.67;;;;;;;24.06;62.93;100586.59;5087127;28;20469;-51
2022/07/24 06:01:03;;;;;;;6.80;3.27;;;;;;;24.08;62.53;100584.63;5079766;28;20490;-51
2022/07/24 06:03:29;;;;;;;4.37;3.70;;;;;;;24.25;61.68;100589.56;5091391;28;20444;-52
2022/07/24 06:05:56;;;;;;;6.00;3.80;;;;;;;24.13;62.54;100590.59;5078230;28;20446;-50
2022/07/24 06:08:22;;;;;;;4.67;4.37;;;;;;;23.91;62.88;100586.84;5094266;28;20469;-51
2022/07/24 06:10:49;;;;;;;2.40;2.30;;;;;;;24.24;62.39;100590.56;5086119;28;20807;-50
2022/07/24 06:13:15;;;;;;;3.80;3.60;;;;;;;24.35;61.42;100584.28;5094532;28;20433;-51
2022/07/24 06:15:42;;;;;;;4.13;3.27;;;;;;;24.76;60.55;100581.75;5093243;28;20822;-53
2022/07/24 06:18:08;;;;;;;6.97;3.17;;;;;;;24.47;61.84;100576.00;5090804;28;20471;-51
2022/07/24 06:20:35;;;;;;;3.53;3.33;;;;;;;25.04;60.19;100565.88;5093537;28;20449;-50
2022/07/24 06:23:01;;;;;;;3.13;2.93;;;;;;;25.15;58.78;100570.41;5083455;28;20448;-51
2022/07/24 06:25:27;;;;;;;4.07;3.23;;;;;;;25.25;58.24;100568.63;5093811;28;20445;-51
2022/07/24 06:27:54;;;;;;;4.53;3.17;;;;;;;24.82;59.09;100564.06;5093820;28;20837;-51
2022/07/24 06:30:24;;;;;;;3.23;2.93;;;;;;;25.00;59.46;100558.94;5093316;28;20456;-52
2022/07/24 06:32:56;;;;;;;3.40;3.20;;;;;;;25.26;59.02;100568.50;5093954;28;20532;-50
2022/07/24 06:35:25;;;;;;;3.23;2.93;;;;;;;25.45;58.33;100573.22;5090699;28;20456;-51
2022/07/24 06:37:51;;;;;;;2.80;2.60;;;;;;;25.49;58.32;100574.66;5074628;28;20446;-52
2022/07/24 06:40:19;;;;;;;4.47;2.90;;;;;;;25.88;57.55;100569.50;5079847;28;20459;-51
2022/07/24 06:42:47;;;;;;;21.67;4.27;;;;;;;25.80;57.12;100566.59;5082958;28;20482;-51
2022/07/24 06:45:14;;;;;;;8.33;2.60;;;;;;;25.82;57.70;100562.75;5076218;28;20481;-53
2022/07/24 06:47:41;;;;;;;3.30;3.10;;;;;;;25.55;58.47;100556.94;5084618;28;20796;-50
2022/07/24 06:50:08;;;;;;;4.37;2.97;;;;;;;25.65;58.71;100555.16;5089979;28;20792;-51
2022/07/24 06:52:35;;;;;;;3.63;3.47;;;;;;;25.50;57.59;100559.22;5086512;28;20446;-51
2022/07/24 06:55:01;;;;;;;1.97;1.87;;;;;;;25.36;57.77;100558.56;5085956;28;20454;-50
2022/07/24 06:57:28;;;;;;;3.83;3.43;;;;;;;25.57;57.59;100557.69;5083902;28;20449;-53
2022/07/24 06:59:54;;;;;;;6.80;2.57;;;;;;;25.42;57.90;100550.84;5082502;28;20465;-51
2022/07/24 07:02:22;;;;;;;2.93;2.53;;;;;;;25.32;57.44;100553.47;5081644;28;20481;-51
2022/07/24 07:04:49;;;;;;;7.17;1.93;;;;;;;25.57;57.21;100555.81;5082494;28;20454;-52
2022/07/24 07:07:16;;;;;;;2.13;2.03;;;;;;;25.61;57.30;100554.53;5084557;28;20456;-49
2022/07/24 07:09:42;;;;;;;2.20;2.10;;;;;;;25.54;56.68;100556.09;5077905;28;20489;-50
2022/07/24 07:12:10;;;;;;;2.47;2.27;;;;;;;25.53;57.70;100559.81;5073007;28;20456;-51
2022/07/24 07:14:36;;;;;;;5.30;3.67;;;;;;;25.47;57.29;100559.47;5084284;28;20445;-52
2022/07/24 07:17:03;;;;;;;2.87;2.20;;;;;;;26.26;55.75;100566.97;5073302;28;20823;-51
2022/07/24 07:19:29;;;;;;;1.90;1.80;;;;;;;25.97;55.62;100563.25;5086248;28;20472;-52
2022/07/24 07:21:58;;;;;;;3.33;2.73;;;;;;;25.62;56.54;100564.44;5091867;28;20488;-51
2022/07/24 07:24:25;;;;;;;8.73;2.40;;;;;;;25.66;56.42;100560.47;5078230;28;20450;-50
2022/07/24 07:26:52;;;;;;;2.70;2.50;;;;;;;25.82;56.50;100561.88;5084626;28;20453;-51
2022/07/24 07:29:18;;;;;;;2.70;2.43;;;;;;;26.29;55.40;100558.50;5075945;28;20469;-50
2022/07/24 07:31:45;;;;;;;9.60;2.40;;;;;;;26.28;54.54;100562.22;5079367;28;20448;-51
2022/07/24 07:34:11;;;;;;;2.90;2.70;;;;;;;26.55;54.49;100563.50;5083972;28;20464;-51
2022/07/24 07:36:38;;;;;;;7.70;2.60;;;;;;;26.14;55.49;100559.88;5092732;28;20433;-51
2022/07/24 07:39:04;;;;;;;3.50;3.13;;;;;;;26.79;53.87;100561.25;5078978;28;20465;-50
2022/07/24 07:41:32;;;;;;;2.30;2.20;;;;;;;26.91;53.60;100559.25;5092743;28;20543;-51
2022/07/24 07:43:59;;;;;;;5.00;3.13;;;;;;;27.18;51.78;100549.53;5092604;28;20453;-51
2022/07/24 07:46:25;;;;;;;6.80;2.80;;;;;;;27.07;52.13;100561.44;5086333;28;20454;-50
2022/07/24 07:48:52;;;;;;;1.90;1.80;;;;;;;26.79;53.17;100560.38;5087864;28;20466;-51
2022/07/24 07:51:20;;;;;;;3.77;1.80;;;;;;;27.25;51.78;100551.53;5085741;28;20532;-53
2022/07/24 07:53:50;;;;;;;2.80;2.60;;;;;;;27.21;51.93;100550.09;5079093;28;20453;-51
2022/07/24 07:56:16;;;;;;;15.50;2.90;;;;;;;26.93;52.17;100554.50;5092378;28;20459;-50
2022/07/24 07:58:43;;;;;;;2.90;2.70;;;;;;;27.46;50.61;100556.84;5078724;28;20473;-51
2022/07/24 08:01:09;;;;;;;2.60;2.40;;;;;;;27.59;50.72;100553.78;5092102;28;20475;-51
2022/07/24 08:03:36;;;;;;;2.13;2.03;;;;;;;27.48;50.72;100556.69;5092180;28;20453;-51
2022/07/24 08:06:03;;;;;;;2.10;1.93;;;;;;;27.64;50.12;100563.28;5092012;28;21000;-51
2022/07/24 08:08:39;;;;;;;2.83;2.60;;;;;;;27.58;50.25;100563.00;5076591;28;20504;-51
2022/07/24 08:11:06;;;;;;;1.67;1.57;;;;;;;27.84;49.69;100553.19;5087960;28;20536;-51
2022/07/24 08:13:32;;;;;;;5.70;3.17;;;;;;;27.62;50.57;100553.50;5079462;28;20453;-51
2022/07/24 08:15:59;;;;;;;2.13;2.00;;;;;;;27.76;49.59;100553.06;5084057;28;20424;-52
2022/07/24 08:18:25;;;;;;;2.87;2.67;;;;;;;27.44;49.90;100554.25;5077239;28;20547;-50
2022/07/24 08:20:52;;;;;;;1.97;1.87;;;;;;;28.05;48.94;100558.44;5085312;28;20461;-52
2022/07/24 08:23:19;;;;;;;4.57;2.53;;;;;;;28.17;48.96;100551.75;5085830;28;20484;-52
2022/07/24 08:25:45;;;;;;;2.20;2.10;;;;;;;27.52;49.90;100552.66;5078393;28;20456;-52
2022/07/24 08:28:12;;;;;;;2.57;2.47;;;;;;;27.84;49.17;100549.59;5083979;28;20448;-52
2022/07/24 08:30:38;;;;;;;2.03;1.93;;;;;;;27.94;49.38;100550.41;5078551;28;20465;-51
2022/07/24 08:33:05;;;;;;;2.60;2.40;;;;;;;27.98;48.53;100549.13;5080013;28;20853;-52
2022/07/24 08:35:31;;;;;;;5.10;2.23;;;;;;;28.36;48.39;100545.34;5085144;28;20944;-52
2022/07/24 08:37:59;;;;;;;2.60;2.20;;;;;;;29.02;47.07;100539.63;5077207;28;20473;-52
2022/07/24 08:40:28;;;;;;;1.53;1.43;;;;;;;28.68;47.07;100541.31;5084818;28;20850;-51
2022/07/24 08:42:55;;;;;;;1.50;1.40;;;;;;;28.32;46.76;100539.34;5081885;28;20855;-52
2022/07/24 08:45:21;;;;;;;3.23;3.07;;;;;;;28.50;46.78;100533.91;5081914;28;20788;-55
2022/07/24 08:47:51;;;;;;;4.53;2.77;;;;;;;28.60;46.85;100537.44;5087176;28;20956;-54
2022/07/24 08:50:17;;;;;;;7.67;2.77;;;;;;;28.48;46.56;100533.19;5077983;28;20445;-54
2022/07/24 08:52:44;;;;;;;2.60;2.50;;;;;;;28.72;46.35;100529.88;5079733;28;20473;-55
2022/07/24 08:55:12;;;;;;;1.83;1.70;;;;;;;29.19;46.11;100533.31;5086890;28;20453;-55
2022/07/24 08:57:38;;;;;;;2.77;2.57;;;;;;;29.69;44.93;100540.88;5079851;28;20921;-55
2022/07/24 09:00:05;;;;;;;2.23;2.13;;;;;;;29.21;45.38;100533.13;5084749;28;20544;-55
2022/07/24 09:02:33;;;;;;;2.33;2.23;;;;;;;29.69;45.17;100538.16;5088550;28;20455;-55
2022/07/24 09:05:01;;;;;;;3.33;2.50;;;;;;;29.68;44.91;100530.09;5080574;28;20456;-56
2022/07/24 09:07:29;;;;;;;3.00;2.60;;;;;;;28.97;45.80;100528.28;5089650;28;20820;-56
2022/07/24 09:10:11;;;;;;;2.53;2.33;;;;;;;29.26;45.39;100529.91;5085283;28;20464;-55
2022/07/24 09:12:41;;;;;;;2.70;2.40;;;;;;;29.65;44.13;100528.53;5092315;28;20439;-55
2022/07/24 09:15:26;;;;;;;2.20;2.10;;;;;;;30.24;43.87;100526.81;5090681;28;20520;-55
2022/07/24 09:17:54;;;;;;;2.30;2.20;;;;;;;30.30;42.58;100525.31;5093288;28;20448;-55
2022/07/24 09:20:23;;;;;;;2.60;2.47;;;;;;;30.33;41.93;100516.75;5089626;28;20434;-55
2022/07/24 09:22:50;;;;;;;2.63;2.33;;;;;;;29.68;42.25;100519.97;5087685;28;20496;-55
2022/07/24 09:25:17;;;;;;;15.23;2.20;;;;;;;29.50;43.34;100510.97;5078868;28;20460;-56
2022/07/24 09:27:49;;;;;;;2.83;2.63;;;;;;;30.09;42.41;100509.28;5088572;28;20449;-55
2022/07/24 09:30:36;;;;;;;2.63;1.60;;;;;;;29.93;41.92;100514.66;5082922;28;20934;-54
2022/07/24 09:33:11;;;;;;;2.33;2.23;;;;;;;30.51;41.47;100509.25;5083837;28;20452;-54
2022/07/24 09:35:41;;;;;;;3.63;2.47;;;;;;;30.41;41.52;100507.66;5078137;28;20449;-54
2022/07/24 09:38:22;;;;;;;3.70;2.57;;;;;;;30.53;40.62;100509.09;5087671;28;20472;-55
2022/07/24 09:40:55;;;;;;;2.27;2.07;;;;;;;30.33;39.92;100509.38;5094369;28;20516;-55
2022/07/24 09:43:30;;;;;;;2.50;2.40;;;;;;;29.79;40.64;100510.63;5079045;28;20452;-54
2022/07/24 09:46:12;;;;;;;1.83;1.73;;;;;;;29.98;41.42;100506.78;5080546;28;20436;-55
2022/07/24 09:48:50;;;;;;;5.77;2.70;;;;;;;29.95;41.98;100504.38;5086911;28;20881;-55
2022/07/24 09:51:17;;;;;;;1.90;1.80;;;;;;;30.20;41.61;100498.00;5081167;28;20454;-54
2022/07/24 09:53:46;;;;;;;2.07;1.97;;;;;;;31.08;39.27;100503.03;5079768;28;20960;-54
2022/07/24 09:56:15;;;;;;;2.57;2.23;;;;;;;31.22;39.58;100505.13;5083971;28;20454;-55
2022/07/24 09:58:45;;;;;;;1.70;1.60;;;;;;;31.24;39.76;100503.03;5079229;28;20448;-55
2022/07/24 10:01:16;;;;;;;6.67;3.00;;;;;;;30.88;39.41;100495.13;5077290;28;20479;-55
2022/07/24 10:03:44;;;;;;;2.20;2.10;;;;;;;31.65;38.96;100494.75;5077143;28;20893;-55
2022/07/24 10:06:13;;;;;;;1.80;1.70;;;;;;;30.68;39.70;100490.97;5090588;28;20428;-55
2022/07/24 10:08:44;;;;;;;1.50;1.40;;;;;;;30.38;40.06;100486.91;5083362;28;20472;-55
2022/07/24 10:11:11;;;;;;;2.07;1.97;;;;;;;30.43;40.45;100486.41;5094534;28;20420;-56
2022/07/24 10:13:39;;;;;;;1.70;1.60;;;;;;;31.00;39.38;100486.56;5092928;28;20445;-55
2022/07/24 10:16:12;;;;;;;2.50;2.30;;;;;;;31.35;38.28;100488.09;5094343;28;20420;-55
2022/07/24 10:18:51;;;;;;;3.60;1.53;;;;;;;31.61;39.52;100483.25;5094505;28;20469;-55
2022/07/24 10:21:26;;;;;;;4.43;2.30;;;;;;;31.60;38.25;100483.44;5094016;28;20449;-55
2022/07/24 10:24:08;;;;;;;3.10;2.90;;;;;;;30.78;38.86;100475.19;5080138;28;20863;-55
2022/07/24 10:26:44;;;;;;;2.07;1.97;;;;;;;31.74;38.32;100482.75;5094104;28;20471;-55
2022/07/24 10:29:10;;;;;;;1.97;1.87;;;;;;;32.17;37.76;100475.88;5093764;28;20464;-56
2022/07/24 10:31:39;;;;;;;2.43;2.33;;;;;;;32.04;37.60;100470.09;5093746;28;20518;-55
2022/07/24 10:34:21;;;;;;;2.87;2.77;;;;;;;31.85;37.89;100473.25;5093359;28;20447;-54
2022/07/24 10:36:59;;;;;;;3.67;2.60;;;;;;;31.33;38.70;100468.19;5093771;28;20511;-55
2022/07/24 10:39:36;;;;;;;2.60;1.97;;;;;;;31.87;37.28;100472.06;5093713;28;20560;-55
2022/07/24 10:42:05;;;;;;;3.47;2.90;;;;;;;31.17;38.32;100463.53;5093315;28;20839;-55
2022/07/24 10:44:32;;;;;;;2.20;2.10;;;;;;;31.08;39.04;100456.34;5093435;28;20442;-55
2022/07/24 10:47:07;;;;;;;3.07;2.87;;;;;;;31.90;37.96;100460.69;5087251;28;20831;-55
2022/07/24 10:49:43;;;;;;;9.20;3.30;;;;;;;32.48;36.67;100456.63;5093554;28;20439;-55
2022/07/24 10:52:24;;;;;;;3.07;2.97;;;;;;;32.02;37.27;100458.41;5093774;28;20440;-55
2022/07/24 10:55:28;;;;;;;2.70;2.57;;;;;;;32.70;36.36;100455.81;5093001;28;20423;-53
2022/07/24 10:58:12;;;;;;;3.30;3.20;;;;;;;32.06;36.36;100449.59;5093393;28;20461;-55
2022/07/24 11:00:43;;;;;;;2.00;1.90;;;;;;;31.68;37.30;100443.03;5093413;28;20414;-56
2022/07/24 11:03:29;;;;;;;3.30;3.10;;;;;;;31.86;36.21;100448.34;5093455;28;20477;-55
2022/07/24 11:06:07;;;;;;;1.93;1.83;;;;;;;32.12;37.19;100435.16;5093208;28;20966;-54
2022/07/24 11:08:39;;;;;;;2.43;2.23;;;;;;;32.23;36.49;100435.78;5092877;28;20544;-54
2022/07/24 11:11:14;;;;;;;2.57;2.47;;;;;;;32.52;36.28;100430.47;5093288;28;20768;-53
2022/07/24 11:13:43;;;;;;;3.20;3.00;;;;;;;32.39;35.38;100432.97;5092944;28;20418;-54
2022/07/24 11:16:15;;;;;;;3.40;3.03;;;;;;;31.76;36.81;100433.94;5088375;28;20975;-51
2022/07/24 11:19:02;;;;;;;4.50;3.13;;;;;;;31.64;35.50;100427.91;5085064;28;20552;-50
2022/07/24 11:21:36;;;;;;;2.60;2.50;;;;;;;31.41;35.66;100422.34;5078150;28;20502;-50
2022/07/24 11:24:21;;;;;;;2.87;2.77;;;;;;;31.86;34.34;100420.84;5079158;28;20988;-50
2022/07/24 11:26:56;;;;;;;2.13;2.03;;;;;;;32.27;35.27;100413.22;5092943;28;20834;-50
2022/07/24 11:29:29;;;;;;;2.63;2.43;;;;;;;32.56;35.25;100412.53;5092968;28;20551;-51